Antholz Obertal
06.09.2026, 03:15















57 Stazions meteo
| Favoric | Stazion | Autëza | Data - ëura |
t (°C) |
N (mm) |
ff (km/h) |
bb (km/h) |
dd |
rH (%) |
p (hPa) |
sd (h) |
EG (W/m²) |
|---|---|---|---|---|---|---|---|---|---|---|---|---|
| Antholz Obertal | 1327 m | 06.09.2026, 03:15 | 10.6 | 0.0 | 9.0 | 13.0 | NO(37.1°) | 84 | 1025.6 | 00:00 | 0 | |
| Auer | 254 m | 06.09.2026, 03:15 | 21.2 | 0.0 | - | - | - | 57 | 1021.1 | 00:00 | 0 | |
| Barbian Kollmann | 463 m | 06.09.2026, 03:15 | 16.2 | 0.0 | 9.4 | 12.6 | N(348°) | 81 | 1023.1 | 00:00 | 0 | |
| Branzoll | 227 m | 06.09.2026, 03:15 | 17.5 | 0.0 | 1.4 | 2.9 | SV(222°) | 86 | 1021.2 | 00:00 | 0 | |
| Bulsan | 245 m | 06.09.2026, 03:15 | 23.4 | 0.0 | 14.4 | 19.8 | O(67.6°) | 42 | 1020.5 | 00:00 | 0 | |
| Burnech | 831 m | 06.09.2026, 03:15 | 11.2 | 0.0 | 0.7 | 5.0 | S(190.9°) | 88 | 1025.7 | 00:00 | 0 | |
| Corvara | 1530 m | 06.09.2026, 03:15 | 9.7 | 0.0 | 2.2 | 6.8 | S(168.4°) | 85 | 1025.6 | 00:00 | 0 | |
| Deutschnofen | 1470 m | 06.09.2026, 03:15 | 14.7 | 0.0 | 11.5 | 13.7 | N(7°) | 64 | 1021.7 | 00:00 | 0 | |
| Franzensfeste Grasstein | 833 m | 06.09.2026, 03:15 | 15.7 | 0.0 | 19.1 | 24.5 | SV(235.4°) | 73 | 1022.5 | - | - | |
| Gargazon | 253 m | 06.09.2026, 03:15 | 14.8 | 0.0 | 4.7 | 9.7 | NW(329.4°) | 97 | 1022.3 | 00:00 | 0 | |
| Hintermartell | 1714 m | 06.09.2026, 03:15 | 11.1 | 0.0 | 8.6 | 14.8 | S(199.7°) | 68 | 1028.2 | 00:00 | 0 | |
| Jenesien | 972 m | 06.09.2026, 03:15 | 17.8 | 0.0 | 7.6 | 14.4 | N(7.9°) | 51 | 1022.2 | 00:00 | 0 | |
| Jouf de Ciarej | 1713 m | 06.09.2026, 03:15 | 11.9 | 0.0 | 7.2 | 9.4 | NO(58.4°) | 66 | 1023.6 | 00:00 | 0 | |
| Kaltern Oberplanitzing | 492 m | 06.09.2026, 03:15 | 21.7 | 0.0 | 9.4 | 14.8 | N(354°) | 49 | 1021.9 | 00:00 | 0 | |
| Laas Eyrs | 874 m | 06.09.2026, 03:15 | 16.9 | 0.0 | 9.7 | 18.4 | SV(240.7°) | 58 | 1023.4 | 00:00 | 0 | |
| Laimburg | 224 m | 06.09.2026, 03:15 | 15.7 | 0.0 | 0.4 | 2.5 | V(274.9°) | 95 | 1023.3 | 00:00 | 0 | |
| Langtaufers Grub | 1844 m | 06.09.2026, 03:15 | 7.6 | 0.0 | 7.9 | 11.5 | NO(48.7°) | 85 | 1027.4 | 00:00 | 0 | |
| Maran | 333 m | 06.09.2026, 03:15 | 18.2 | 0.0 | 2.9 | 7.2 | O(76°) | 71 | 1022.0 | 00:00 | 0 | |
| Marienberg | 1312 m | 06.09.2026, 03:15 | 15.4 | 0.0 | - | - | - | 57 | 1023.3 | 00:00 | 0 | |
| Mühlwald | 1140 m | 06.09.2026, 03:15 | 11.9 | 0.0 | - | - | - | 87 | 1025.6 | - | - | |
| Naturns | 537 m | 06.09.2026, 03:15 | 17.3 | 0.0 | 5.4 | 18.0 | SO(128.4°) | 62 | 1023.7 | 00:00 | 0 | |
| Obervintl | 747 m | 06.09.2026, 03:15 | 11.1 | 0.0 | 0.7 | 4.0 | S(181.3°) | 100 | 1026.0 | 00:00 | 0 | |
| Pens | 1452 m | 06.09.2026, 03:15 | 11.2 | 0.0 | - | - | - | 99 | 1025.5 | - | - | |
| Persenon | 585 m | 06.09.2026, 03:15 | 16.1 | 0.0 | 1.1 | 3.2 | NW(307.7°) | 87 | 1023.2 | 00:00 | 0 | |
| Pfelders | 1622 m | 06.09.2026, 03:15 | 9.0 | 0.0 | 5.0 | 8.3 | SV(209.2°) | 78 | 1026.5 | 00:00 | 0 | |
| Pfitsch St. Jakob | 1438 m | 06.09.2026, 03:15 | 7.6 | 0.0 | 1.4 | 5.8 | SO(139°) | 100 | 1028.0 | 00:00 | 0 | |
| Pflersch | 1152 m | 06.09.2026, 03:15 | 12.1 | 0.0 | 5.0 | 10.1 | NW(321.7°) | 88 | 1025.5 | 00:00 | 0 | |
| Pfunders | 1169 m | 06.09.2026, 03:15 | 14.0 | 0.0 | 1.8 | 6.5 | NW(296°) | 63 | 1022.5 | 00:00 | 0 | |
| Platt in Passeier | 1143 m | 06.09.2026, 03:15 | 16.2 | 0.0 | 1.4 | 6.1 | S(189.6°) | 57 | 1022.6 | 00:00 | 0 | |
| Prettau | 1448 m | 06.09.2026, 03:15 | 12.0 | 0.0 | 8.6 | 13.7 | NO(58.9°) | 81 | 1024.8 | 00:00 | 0 | |
| Radein | 1550 m | 06.09.2026, 03:15 | 16.1 | 0.0 | 5.0 | 8.6 | O(79.8°) | 45 | 1022.1 | 00:00 | 0 | |
| Rein in Taufers | 1562 m | 06.09.2026, 03:15 | 9.9 | 0.0 | 4.3 | 7.6 | SO(136.5°) | 92 | 1025.7 | 00:00 | 0 | |
| Ridnaun | 1365 m | 06.09.2026, 03:15 | 11.9 | 0.0 | - | - | - | 85 | 1028.5 | - | - | |
| Ritten Siffian | 989 m | 06.09.2026, 03:15 | 16.0 | 0.0 | 0.7 | 2.9 | NW(294.9°) | 64 | 1022.7 | 00:00 | 0 | |
| S. Martin de Tor | 1151 m | 06.09.2026, 03:15 | 9.7 | 0.0 | 1.8 | 4.3 | SO(114°) | 88 | 1029.3 | 00:00 | 0 | |
| Salurn | 214 m | 06.09.2026, 03:15 | 19.3 | 0.0 | 4.0 | 7.2 | V(272.6°) | 65 | 1022.0 | 00:00 | 0 | |
| Sand i.T. Mühlen | 850 m | 06.09.2026, 03:15 | 10.4 | 0.0 | 1.8 | 4.7 | SV(233.6°) | 100 | 1026.0 | 00:00 | 0 | |
| Sarnthein | 970 m | 06.09.2026, 03:15 | 16.4 | 0.0 | 9.0 | 14.8 | N(357°) | 66 | 1023.3 | 00:00 | 0 | |
| Schnals Vernagt | 1697 m | 06.09.2026, 03:15 | 11.7 | 0.0 | - | - | - | 59 | 1025.6 | - | - | |
| Sëlva | 1594 m | 06.09.2026, 03:15 | 10.3 | 0.0 | - | - | - | 76 | 1025.7 | - | - | |
| Sexten | 1322 m | 06.09.2026, 03:15 | 7.0 | 0.0 | 2.5 | 5.0 | SO(112.9°) | 100 | 1026.0 | 00:00 | 0 | |
| St. Magdalena in Gsies | 1414 m | 06.09.2026, 03:15 | 9.7 | 0.0 | 15.5 | 19.4 | NO(25.5°) | 83 | 1030.2 | 00:00 | 0 | |
| St. Martin in Passeier | 588 m | 06.09.2026, 03:15 | 16.6 | 0.0 | 1.8 | 5.4 | NO(26.9°) | 76 | 1023.8 | 00:00 | 0 | |
| St. Valentin a.d. Haide | 1500 m | 06.09.2026, 03:15 | 12.2 | 0.0 | 14.0 | 19.1 | N(354.6°) | 97 | 1024.7 | 00:00 | 0 | |
| St. Veit in Prags | 1350 m | 06.09.2026, 03:15 | 9.7 | 0.0 | - | - | - | 94 | 1028.0 | - | - | |
| St. Walburg | 1142 m | 06.09.2026, 03:15 | 16.1 | 0.0 | 10.8 | 14.8 | SV(218.8°) | 66 | 1022.9 | 00:00 | 0 | |
| Sterzing | 939 m | 06.09.2026, 03:15 | 13.6 | 0.0 | 5.4 | 7.9 | V(284.8°) | 94 | 1026.0 | 00:00 | 0 | |
| Sulaneres | 698 m | 06.09.2026, 03:15 | 19.2 | 0.0 | 16.2 | 24.1 | V(278.6°) | 60 | 1022.7 | 00:00 | 0 | |
| Sulden | 1902 m | 06.09.2026, 03:15 | 8.8 | 0.0 | - | - | - | 82 | 1025.9 | 00:00 | 0 | |
| Terenten | 1350 m | 06.09.2026, 03:15 | 14.9 | 0.0 | 4.3 | 7.2 | NW(332.9°) | 57 | 1022.9 | 00:00 | 0 | |
| Toblach | 1218 m | 06.09.2026, 03:15 | 10.1 | 0.0 | 5.0 | 6.5 | O(97.3°) | 87 | 1027.0 | 00:00 | 0 | |
| Ulten Weißbrunn | 1883 m | 06.09.2026, 03:15 | 11.9 | 0.0 | - | - | - | 56 | 1023.8 | 00:00 | 0 | |
| Vals | 1409 m | 06.09.2026, 03:15 | 12.4 | 0.0 | 0.7 | 11.2 | NW(303.6°) | 77 | 1025.5 | 00:00 | 0 | |
| Valsperch | 1129 m | 06.09.2026, 03:15 | 8.3 | 0.0 | 2.9 | 4.3 | SO(124.4°) | 100 | 1027.7 | 00:00 | 0 | |
| Villnöss | 1327 m | 06.09.2026, 03:15 | 13.5 | 0.0 | 3.6 | 6.5 | N(0.9°) | 68 | 1023.8 | 00:00 | 0 | |
| Völs am Schlern | 840 m | 06.09.2026, 03:15 | 18.1 | 0.0 | 2.9 | 6.5 | O(74.3°) | 56 | 1025.4 | 00:00 | 0 | |
| Welschnofen | 1126 m | 06.09.2026, 03:15 | 12.9 | 0.0 | - | - | - | 78 | 1025.4 | 00:00 | 0 |
Lijënda di dac muserei:
t:Temperatura dl'aria (°C)
N:Prezipitazions do mesanuet (mm)
ff:Slune mesan dl vënt (km/h)
bb:Majer slune dl vënt (km/h)
dd:Direzion dl vënt
rH:Tume relatif (%)
p:Prescion dl'aria (hPa)
sd:Dureda dl surëdl (h)
EG:Raiazion dl surëdl (W/m²)